sensor_id;sensor_type;location;lat;lon;timestamp;P1;durP1;ratioP1;P2;durP2;ratioP2
78453;SDS011;67750;55.832;49.124;2023-07-13T00:01:55;9.18;;;6.03;;
78453;SDS011;67750;55.832;49.124;2023-07-13T00:04:25;13.62;;;7.08;;
78453;SDS011;67750;55.832;49.124;2023-07-13T00:06:55;13.70;;;9.30;;
78453;SDS011;67750;55.832;49.124;2023-07-13T00:09:25;8.13;;;6.92;;
78453;SDS011;67750;55.832;49.124;2023-07-13T00:11:55;13.60;;;8.48;;
78453;SDS011;67750;55.832;49.124;2023-07-13T00:14:26;8.80;;;7.45;;
78453;SDS011;67750;55.832;49.124;2023-07-13T00:16:56;9.23;;;7.85;;
78453;SDS011;67750;55.832;49.124;2023-07-13T00:19:27;7.00;;;6.08;;
78453;SDS011;67750;55.832;49.124;2023-07-13T00:21:57;8.50;;;7.65;;
78453;SDS011;67750;55.832;49.124;2023-07-13T00:24:26;8.83;;;7.92;;
78453;SDS011;67750;55.832;49.124;2023-07-13T00:26:56;8.63;;;7.28;;
78453;SDS011;67750;55.832;49.124;2023-07-13T00:29:26;9.20;;;8.18;;
78453;SDS011;67750;55.832;49.124;2023-07-13T00:31:55;10.98;;;8.33;;
78453;SDS011;67750;55.832;49.124;2023-07-13T00:34:25;11.30;;;9.18;;
78453;SDS011;67750;55.832;49.124;2023-07-13T00:36:55;8.95;;;8.05;;
78453;SDS011;67750;55.832;49.124;2023-07-13T00:39:24;8.75;;;7.85;;
78453;SDS011;67750;55.832;49.124;2023-07-13T00:41:54;8.48;;;7.35;;
78453;SDS011;67750;55.832;49.124;2023-07-13T00:44:24;7.08;;;6.37;;
78453;SDS011;67750;55.832;49.124;2023-07-13T00:46:54;7.60;;;6.90;;
78453;SDS011;67750;55.832;49.124;2023-07-13T00:49:26;7.97;;;6.83;;
78453;SDS011;67750;55.832;49.124;2023-07-13T00:54:45;4.83;;;4.15;;
78453;SDS011;67750;55.832;49.124;2023-07-13T00:57:16;6.08;;;4.33;;
78453;SDS011;67750;55.832;49.124;2023-07-13T00:59:47;7.83;;;4.35;;
78453;SDS011;67750;55.832;49.124;2023-07-13T01:02:18;4.90;;;3.17;;
78453;SDS011;67750;55.832;49.124;2023-07-13T01:04:49;4.65;;;3.10;;
78453;SDS011;67750;55.832;49.124;2023-07-13T01:07:18;6.20;;;3.30;;
78453;SDS011;67750;55.832;49.124;2023-07-13T01:09:48;3.98;;;3.37;;
78453;SDS011;67750;55.832;49.124;2023-07-13T01:12:19;6.47;;;3.77;;
78453;SDS011;67750;55.832;49.124;2023-07-13T01:14:56;7.65;;;6.35;;
78453;SDS011;67750;55.832;49.124;2023-07-13T01:17:19;8.20;;;4.12;;
78453;SDS011;67750;55.832;49.124;2023-07-13T01:19:49;6.37;;;3.70;;
78453;SDS011;67750;55.832;49.124;2023-07-13T01:22:18;9.28;;;4.55;;
78453;SDS011;67750;55.832;49.124;2023-07-13T01:24:50;5.12;;;3.72;;
78453;SDS011;67750;55.832;49.124;2023-07-13T01:27:21;5.17;;;4.10;;
78453;SDS011;67750;55.832;49.124;2023-07-13T01:29:53;5.33;;;4.17;;
78453;SDS011;67750;55.832;49.124;2023-07-13T01:32:24;5.83;;;3.72;;
78453;SDS011;67750;55.832;49.124;2023-07-13T01:37:24;5.15;;;2.85;;
78453;SDS011;67750;55.832;49.124;2023-07-13T01:39:54;6.83;;;3.45;;
78453;SDS011;67750;55.832;49.124;2023-07-13T01:42:24;4.85;;;3.33;;
78453;SDS011;67750;55.832;49.124;2023-07-13T01:44:53;4.95;;;3.02;;
78453;SDS011;67750;55.832;49.124;2023-07-13T01:47:23;6.35;;;3.08;;
78453;SDS011;67750;55.832;49.124;2023-07-13T01:49:53;2.92;;;1.85;;
78453;SDS011;67750;55.832;49.124;2023-07-13T01:52:22;2.75;;;1.57;;
78453;SDS011;67750;55.832;49.124;2023-07-13T01:54:52;3.00;;;1.80;;
78453;SDS011;67750;55.832;49.124;2023-07-13T01:57:21;2.87;;;1.60;;
78453;SDS011;67750;55.832;49.124;2023-07-13T01:59:51;2.67;;;1.70;;
78453;SDS011;67750;55.832;49.124;2023-07-13T02:02:21;3.20;;;2.00;;
78453;SDS011;67750;55.832;49.124;2023-07-13T02:04:51;2.40;;;1.80;;
78453;SDS011;67750;55.832;49.124;2023-07-13T02:07:21;4.30;;;1.72;;
78453;SDS011;67750;55.832;49.124;2023-07-13T02:09:51;2.92;;;1.98;;
78453;SDS011;67750;55.832;49.124;2023-07-13T02:12:21;3.00;;;1.67;;
78453;SDS011;67750;55.832;49.124;2023-07-13T02:14:50;3.40;;;1.70;;
78453;SDS011;67750;55.832;49.124;2023-07-13T02:17:20;2.67;;;1.98;;
78453;SDS011;67750;55.832;49.124;2023-07-13T02:19:50;2.83;;;1.62;;
78453;SDS011;67750;55.832;49.124;2023-07-13T02:22:19;3.98;;;2.00;;
78453;SDS011;67750;55.832;49.124;2023-07-13T02:24:49;5.28;;;2.12;;
78453;SDS011;67750;55.832;49.124;2023-07-13T02:27:20;3.33;;;2.00;;
78453;SDS011;67750;55.832;49.124;2023-07-13T02:29:50;3.65;;;1.70;;
78453;SDS011;67750;55.832;49.124;2023-07-13T02:34:51;4.22;;;2.25;;
78453;SDS011;67750;55.832;49.124;2023-07-13T02:37:22;3.85;;;2.45;;
78453;SDS011;67750;55.832;49.124;2023-07-13T02:39:51;6.30;;;2.10;;
78453;SDS011;67750;55.832;49.124;2023-07-13T02:42:22;3.98;;;1.90;;
78453;SDS011;67750;55.832;49.124;2023-07-13T02:44:52;4.47;;;2.10;;
78453;SDS011;67750;55.832;49.124;2023-07-13T02:47:21;4.90;;;1.98;;
78453;SDS011;67750;55.832;49.124;2023-07-13T02:52:21;3.25;;;2.08;;
78453;SDS011;67750;55.832;49.124;2023-07-13T02:54:50;3.70;;;2.22;;
78453;SDS011;67750;55.832;49.124;2023-07-13T02:57:20;3.22;;;1.82;;
78453;SDS011;67750;55.832;49.124;2023-07-13T02:59:49;4.33;;;2.17;;
78453;SDS011;67750;55.832;49.124;2023-07-13T03:02:19;6.22;;;2.50;;
78453;SDS011;67750;55.832;49.124;2023-07-13T03:04:49;12.28;;;2.37;;
78453;SDS011;67750;55.832;49.124;2023-07-13T03:07:18;3.77;;;2.22;;
78453;SDS011;67750;55.832;49.124;2023-07-13T03:09:48;4.80;;;2.40;;
78453;SDS011;67750;55.832;49.124;2023-07-13T03:12:18;3.52;;;2.33;;
78453;SDS011;67750;55.832;49.124;2023-07-13T03:14:48;3.75;;;2.12;;
78453;SDS011;67750;55.832;49.124;2023-07-13T03:17:18;3.55;;;2.42;;
78453;SDS011;67750;55.832;49.124;2023-07-13T03:19:47;3.12;;;2.30;;
78453;SDS011;67750;55.832;49.124;2023-07-13T03:24:46;4.42;;;2.65;;
78453;SDS011;67750;55.832;49.124;2023-07-13T03:27:17;4.42;;;2.50;;
78453;SDS011;67750;55.832;49.124;2023-07-13T03:29:48;5.25;;;2.20;;
78453;SDS011;67750;55.832;49.124;2023-07-13T03:32:18;3.20;;;1.85;;
78453;SDS011;67750;55.832;49.124;2023-07-13T03:34:47;3.05;;;2.42;;
78453;SDS011;67750;55.832;49.124;2023-07-13T03:37:17;5.90;;;2.65;;
78453;SDS011;67750;55.832;49.124;2023-07-13T03:39:47;4.92;;;2.60;;
78453;SDS011;67750;55.832;49.124;2023-07-13T03:42:17;5.62;;;2.70;;
78453;SDS011;67750;55.832;49.124;2023-07-13T03:44:46;4.75;;;2.58;;
78453;SDS011;67750;55.832;49.124;2023-07-13T03:47:17;6.33;;;2.92;;
78453;SDS011;67750;55.832;49.124;2023-07-13T03:49:47;8.13;;;2.80;;
78453;SDS011;67750;55.832;49.124;2023-07-13T03:52:16;4.60;;;2.70;;
78453;SDS011;67750;55.832;49.124;2023-07-13T03:54:48;5.92;;;2.60;;
78453;SDS011;67750;55.832;49.124;2023-07-13T03:57:18;3.67;;;2.35;;
78453;SDS011;67750;55.832;49.124;2023-07-13T03:59:47;2.67;;;2.12;;
78453;SDS011;67750;55.832;49.124;2023-07-13T04:02:17;3.55;;;2.20;;
78453;SDS011;67750;55.832;49.124;2023-07-13T04:04:46;3.10;;;1.98;;
78453;SDS011;67750;55.832;49.124;2023-07-13T04:07:16;2.83;;;1.77;;
78453;SDS011;67750;55.832;49.124;2023-07-13T04:09:45;5.03;;;2.62;;
78453;SDS011;67750;55.832;49.124;2023-07-13T04:12:15;3.52;;;2.22;;
78453;SDS011;67750;55.832;49.124;2023-07-13T04:14:45;2.85;;;2.30;;
78453;SDS011;67750;55.832;49.124;2023-07-13T04:17:15;2.22;;;1.67;;
78453;SDS011;67750;55.832;49.124;2023-07-13T04:19:44;3.27;;;2.10;;
78453;SDS011;67750;55.832;49.124;2023-07-13T04:22:14;4.05;;;2.20;;
78453;SDS011;67750;55.832;49.124;2023-07-13T04:24:43;2.72;;;1.80;;
78453;SDS011;67750;55.832;49.124;2023-07-13T04:27:13;5.40;;;1.87;;
78453;SDS011;67750;55.832;49.124;2023-07-13T04:29:42;4.22;;;2.12;;
78453;SDS011;67750;55.832;49.124;2023-07-13T04:32:12;3.15;;;2.00;;
78453;SDS011;67750;55.832;49.124;2023-07-13T04:34:41;3.50;;;1.98;;
78453;SDS011;67750;55.832;49.124;2023-07-13T04:37:11;6.35;;;2.12;;
78453;SDS011;67750;55.832;49.124;2023-07-13T04:39:40;4.30;;;2.62;;
78453;SDS011;67750;55.832;49.124;2023-07-13T04:42:10;4.33;;;2.10;;
78453;SDS011;67750;55.832;49.124;2023-07-13T04:44:39;3.42;;;2.30;;
78453;SDS011;67750;55.832;49.124;2023-07-13T04:47:09;4.95;;;2.08;;
78453;SDS011;67750;55.832;49.124;2023-07-13T04:49:39;4.05;;;1.90;;
78453;SDS011;67750;55.832;49.124;2023-07-13T04:52:08;4.17;;;2.65;;
78453;SDS011;67750;55.832;49.124;2023-07-13T04:54:38;4.97;;;2.60;;
78453;SDS011;67750;55.832;49.124;2023-07-13T04:57:08;6.83;;;2.42;;
78453;SDS011;67750;55.832;49.124;2023-07-13T04:59:37;3.45;;;2.42;;
78453;SDS011;67750;55.832;49.124;2023-07-13T05:02:07;5.95;;;2.40;;
78453;SDS011;67750;55.832;49.124;2023-07-13T05:04:37;3.08;;;2.33;;
78453;SDS011;67750;55.832;49.124;2023-07-13T05:07:06;3.75;;;2.02;;
78453;SDS011;67750;55.832;49.124;2023-07-13T05:09:36;3.60;;;2.00;;
78453;SDS011;67750;55.832;49.124;2023-07-13T05:14:35;3.85;;;1.92;;
78453;SDS011;67750;55.832;49.124;2023-07-13T05:17:05;5.80;;;2.22;;
78453;SDS011;67750;55.832;49.124;2023-07-13T05:19:34;3.35;;;2.37;;
78453;SDS011;67750;55.832;49.124;2023-07-13T05:22:04;4.12;;;2.30;;
78453;SDS011;67750;55.832;49.124;2023-07-13T05:24:33;3.42;;;2.15;;
78453;SDS011;67750;55.832;49.124;2023-07-13T05:27:03;5.12;;;2.10;;
78453;SDS011;67750;55.832;49.124;2023-07-13T05:29:32;3.90;;;2.30;;
78453;SDS011;67750;55.832;49.124;2023-07-13T05:32:02;3.42;;;2.40;;
78453;SDS011;67750;55.832;49.124;2023-07-13T05:34:31;3.60;;;2.37;;
78453;SDS011;67750;55.832;49.124;2023-07-13T05:37:01;3.25;;;2.30;;
78453;SDS011;67750;55.832;49.124;2023-07-13T05:39:30;3.65;;;2.05;;
78453;SDS011;67750;55.832;49.124;2023-07-13T05:42:00;3.98;;;2.30;;
78453;SDS011;67750;55.832;49.124;2023-07-13T05:44:29;3.37;;;2.42;;
78453;SDS011;67750;55.832;49.124;2023-07-13T05:46:59;5.53;;;2.40;;
78453;SDS011;67750;55.832;49.124;2023-07-13T05:49:29;5.78;;;2.33;;
78453;SDS011;67750;55.832;49.124;2023-07-13T05:51:58;2.85;;;2.08;;
78453;SDS011;67750;55.832;49.124;2023-07-13T05:54:29;4.83;;;2.67;;
78453;SDS011;67750;55.832;49.124;2023-07-13T05:56:58;4.05;;;2.45;;
78453;SDS011;67750;55.832;49.124;2023-07-13T05:59:28;3.35;;;2.27;;
78453;SDS011;67750;55.832;49.124;2023-07-13T06:01:57;3.45;;;2.25;;
78453;SDS011;67750;55.832;49.124;2023-07-13T06:04:27;3.72;;;2.40;;
78453;SDS011;67750;55.832;49.124;2023-07-13T06:06:56;4.97;;;2.35;;
78453;SDS011;67750;55.832;49.124;2023-07-13T06:09:27;4.80;;;2.45;;
78453;SDS011;67750;55.832;49.124;2023-07-13T06:11:56;3.92;;;2.30;;
78453;SDS011;67750;55.832;49.124;2023-07-13T06:14:26;2.90;;;2.17;;
78453;SDS011;67750;55.832;49.124;2023-07-13T06:16:55;3.37;;;2.37;;
78453;SDS011;67750;55.832;49.124;2023-07-13T06:19:25;3.72;;;2.10;;
78453;SDS011;67750;55.832;49.124;2023-07-13T06:21:54;4.28;;;2.10;;
78453;SDS011;67750;55.832;49.124;2023-07-13T06:24:25;4.40;;;2.58;;
78453;SDS011;67750;55.832;49.124;2023-07-13T06:26:54;3.25;;;2.42;;
78453;SDS011;67750;55.832;49.124;2023-07-13T06:29:24;3.47;;;2.50;;
78453;SDS011;67750;55.832;49.124;2023-07-13T06:31:53;4.37;;;2.20;;
78453;SDS011;67750;55.832;49.124;2023-07-13T06:34:23;4.12;;;2.20;;
78453;SDS011;67750;55.832;49.124;2023-07-13T06:36:52;4.62;;;2.50;;
78453;SDS011;67750;55.832;49.124;2023-07-13T06:39:22;4.20;;;2.20;;
78453;SDS011;67750;55.832;49.124;2023-07-13T06:41:51;3.17;;;2.67;;
78453;SDS011;67750;55.832;49.124;2023-07-13T06:44:21;6.60;;;2.42;;
78453;SDS011;67750;55.832;49.124;2023-07-13T06:46:50;4.45;;;2.45;;
78453;SDS011;67750;55.832;49.124;2023-07-13T06:49:20;4.17;;;2.42;;
78453;SDS011;67750;55.832;49.124;2023-07-13T06:51:49;3.98;;;2.50;;
78453;SDS011;67750;55.832;49.124;2023-07-13T06:54:19;3.22;;;2.20;;
78453;SDS011;67750;55.832;49.124;2023-07-13T06:56:48;3.00;;;2.40;;
78453;SDS011;67750;55.832;49.124;2023-07-13T06:59:18;2.92;;;1.95;;
78453;SDS011;67750;55.832;49.124;2023-07-13T07:01:48;4.45;;;2.15;;
78453;SDS011;67750;55.832;49.124;2023-07-13T07:04:17;5.70;;;2.50;;
78453;SDS011;67750;55.832;49.124;2023-07-13T07:06:47;4.90;;;2.35;;
78453;SDS011;67750;55.832;49.124;2023-07-13T07:09:16;2.70;;;1.80;;
78453;SDS011;67750;55.832;49.124;2023-07-13T07:11:46;3.05;;;2.15;;
78453;SDS011;67750;55.832;49.124;2023-07-13T07:14:15;2.95;;;2.27;;
78453;SDS011;67750;55.832;49.124;2023-07-13T07:16:45;4.50;;;2.10;;
78453;SDS011;67750;55.832;49.124;2023-07-13T07:19:14;2.92;;;2.22;;
78453;SDS011;67750;55.832;49.124;2023-07-13T07:21:43;3.85;;;2.02;;
78453;SDS011;67750;55.832;49.124;2023-07-13T07:24:13;3.05;;;1.98;;
78453;SDS011;67750;55.832;49.124;2023-07-13T07:26:42;3.65;;;2.10;;
78453;SDS011;67750;55.832;49.124;2023-07-13T07:29:12;4.12;;;2.10;;
78453;SDS011;67750;55.832;49.124;2023-07-13T07:31:41;3.98;;;1.98;;
78453;SDS011;67750;55.832;49.124;2023-07-13T07:34:11;3.75;;;2.10;;
78453;SDS011;67750;55.832;49.124;2023-07-13T07:36:40;4.45;;;2.10;;
78453;SDS011;67750;55.832;49.124;2023-07-13T07:39:10;4.03;;;2.17;;
78453;SDS011;67750;55.832;49.124;2023-07-13T07:41:39;2.98;;;1.85;;
78453;SDS011;67750;55.832;49.124;2023-07-13T07:44:09;3.92;;;1.75;;
78453;SDS011;67750;55.832;49.124;2023-07-13T07:46:39;3.33;;;2.00;;
78453;SDS011;67750;55.832;49.124;2023-07-13T07:49:08;3.15;;;2.05;;
78453;SDS011;67750;55.832;49.124;2023-07-13T07:51:38;4.65;;;1.95;;
78453;SDS011;67750;55.832;49.124;2023-07-13T07:54:07;4.00;;;1.98;;
78453;SDS011;67750;55.832;49.124;2023-07-13T07:56:37;3.85;;;2.10;;
78453;SDS011;67750;55.832;49.124;2023-07-13T07:59:06;3.98;;;2.30;;
78453;SDS011;67750;55.832;49.124;2023-07-13T08:01:36;6.95;;;2.27;;
78453;SDS011;67750;55.832;49.124;2023-07-13T08:04:06;4.67;;;1.82;;
78453;SDS011;67750;55.832;49.124;2023-07-13T08:06:36;5.25;;;1.90;;
78453;SDS011;67750;55.832;49.124;2023-07-13T08:09:05;5.05;;;2.00;;
78453;SDS011;67750;55.832;49.124;2023-07-13T08:11:35;2.35;;;1.57;;
78453;SDS011;67750;55.832;49.124;2023-07-13T08:14:05;3.27;;;1.80;;
78453;SDS011;67750;55.832;49.124;2023-07-13T08:16:36;2.20;;;1.50;;
78453;SDS011;67750;55.832;49.124;2023-07-13T08:19:06;4.40;;;2.20;;
78453;SDS011;67750;55.832;49.124;2023-07-13T08:21:36;3.42;;;2.15;;
78453;SDS011;67750;55.832;49.124;2023-07-13T08:24:06;3.02;;;1.90;;
78453;SDS011;67750;55.832;49.124;2023-07-13T08:26:35;2.52;;;1.70;;
78453;SDS011;67750;55.832;49.124;2023-07-13T08:29:05;3.75;;;1.70;;
78453;SDS011;67750;55.832;49.124;2023-07-13T08:31:34;3.02;;;1.95;;
78453;SDS011;67750;55.832;49.124;2023-07-13T08:34:03;6.03;;;2.00;;
78453;SDS011;67750;55.832;49.124;2023-07-13T08:36:33;3.22;;;2.10;;
78453;SDS011;67750;55.832;49.124;2023-07-13T08:39:03;3.95;;;1.70;;
78453;SDS011;67750;55.832;49.124;2023-07-13T08:41:33;3.58;;;1.90;;
78453;SDS011;67750;55.832;49.124;2023-07-13T08:44:03;5.05;;;1.90;;
78453;SDS011;67750;55.832;49.124;2023-07-13T08:47:04;4.05;;;1.60;;
78453;SDS011;67750;55.832;49.124;2023-07-13T08:49:08;2.37;;;1.60;;
78453;SDS011;67750;55.832;49.124;2023-07-13T08:56:58;2.00;;;1.50;;
78453;SDS011;67750;55.832;49.124;2023-07-13T08:59:28;2.87;;;1.60;;
78453;SDS011;67750;55.832;49.124;2023-07-13T09:10:43;2.98;;;1.62;;
78453;SDS011;67750;55.832;49.124;2023-07-13T09:21:12;3.55;;;2.00;;
78453;SDS011;67750;55.832;49.124;2023-07-13T09:23:41;4.12;;;1.77;;
78453;SDS011;67750;55.832;49.124;2023-07-13T09:29:03;2.52;;;1.47;;
78453;SDS011;67750;55.832;49.124;2023-07-13T09:34:04;3.08;;;1.60;;
78453;SDS011;67750;55.832;49.124;2023-07-13T09:36:33;2.85;;;1.67;;
78453;SDS011;67750;55.832;49.124;2023-07-13T09:47:38;2.22;;;1.40;;
78453;SDS011;67750;55.832;49.124;2023-07-13T09:52:55;4.78;;;1.98;;
78453;SDS011;67750;55.832;49.124;2023-07-13T09:55:46;2.77;;;1.70;;
78453;SDS011;67750;55.832;49.124;2023-07-13T10:00:53;2.37;;;1.70;;
78453;SDS011;67750;55.832;49.124;2023-07-13T10:06:24;3.08;;;1.52;;
78453;SDS011;67750;55.832;49.124;2023-07-13T10:08:55;2.30;;;1.50;;
78453;SDS011;67750;55.832;49.124;2023-07-13T10:14:16;2.27;;;1.45;;
78453;SDS011;67750;55.832;49.124;2023-07-13T10:16:46;3.33;;;1.42;;
78453;SDS011;67750;55.832;49.124;2023-07-13T10:24:38;3.62;;;1.72;;
78453;SDS011;67750;55.832;49.124;2023-07-13T10:32:47;4.60;;;1.92;;
78453;SDS011;67750;55.832;49.124;2023-07-13T10:35:18;4.28;;;1.92;;
78453;SDS011;67750;55.832;49.124;2023-07-13T10:40:39;3.35;;;1.32;;
78453;SDS011;67750;55.832;49.124;2023-07-13T10:43:45;3.27;;;1.20;;
78453;SDS011;67750;55.832;49.124;2023-07-13T10:45:40;2.50;;;1.25;;
78453;SDS011;67750;55.832;49.124;2023-07-13T10:48:12;2.02;;;1.30;;
78453;SDS011;67750;55.832;49.124;2023-07-13T10:50:42;4.17;;;1.80;;
78453;SDS011;67750;55.832;49.124;2023-07-13T10:56:38;2.47;;;1.40;;
78453;SDS011;67750;55.832;49.124;2023-07-13T11:01:24;3.12;;;1.40;;
78453;SDS011;67750;55.832;49.124;2023-07-13T11:03:54;3.33;;;1.57;;
78453;SDS011;67750;55.832;49.124;2023-07-13T11:20:41;1.85;;;1.20;;
78453;SDS011;67750;55.832;49.124;2023-07-13T11:23:09;2.27;;;1.30;;
78453;SDS011;67750;55.832;49.124;2023-07-13T11:25:38;2.05;;;1.07;;
78453;SDS011;67750;55.832;49.124;2023-07-13T11:33:50;2.17;;;1.10;;
78453;SDS011;67750;55.832;49.124;2023-07-13T11:36:03;1.80;;;0.95;;
78453;SDS011;67750;55.832;49.124;2023-07-13T11:47:31;2.50;;;1.22;;
78453;SDS011;67750;55.832;49.124;2023-07-13T11:49:31;2.42;;;1.20;;
78453;SDS011;67750;55.832;49.124;2023-07-13T11:52:01;3.27;;;1.25;;
78453;SDS011;67750;55.832;49.124;2023-07-13T11:54:31;2.58;;;1.22;;
78453;SDS011;67750;55.832;49.124;2023-07-13T11:57:03;2.35;;;1.40;;
78453;SDS011;67750;55.832;49.124;2023-07-13T11:59:33;1.95;;;1.25;;
78453;SDS011;67750;55.832;49.124;2023-07-13T12:02:08;1.80;;;1.00;;
78453;SDS011;67750;55.832;49.124;2023-07-13T12:04:35;2.70;;;1.50;;
78453;SDS011;67750;55.832;49.124;2023-07-13T12:10:00;4.05;;;1.20;;
78453;SDS011;67750;55.832;49.124;2023-07-13T12:12:28;2.62;;;1.25;;
78453;SDS011;67750;55.832;49.124;2023-07-13T12:14:57;2.62;;;1.00;;
78453;SDS011;67750;55.832;49.124;2023-07-13T12:17:26;2.00;;;1.10;;
78453;SDS011;67750;55.832;49.124;2023-07-13T12:19:57;1.90;;;1.07;;
78453;SDS011;67750;55.832;49.124;2023-07-13T12:22:26;2.05;;;1.10;;
78453;SDS011;67750;55.832;49.124;2023-07-13T12:24:56;1.60;;;1.10;;
78453;SDS011;67750;55.832;49.124;2023-07-13T12:27:26;3.20;;;1.20;;
78453;SDS011;67750;55.832;49.124;2023-07-13T12:38:26;1.75;;;1.20;;
78453;SDS011;67750;55.832;49.124;2023-07-13T12:40:55;2.10;;;1.30;;
78453;SDS011;67750;55.832;49.124;2023-07-13T12:43:25;3.20;;;1.65;;
78453;SDS011;67750;55.832;49.124;2023-07-13T12:45:55;2.12;;;1.10;;
78453;SDS011;67750;55.832;49.124;2023-07-13T12:48:25;2.37;;;1.30;;
78453;SDS011;67750;55.832;49.124;2023-07-13T12:50:55;3.35;;;1.50;;
78453;SDS011;67750;55.832;49.124;2023-07-13T12:59:04;3.98;;;1.70;;
78453;SDS011;67750;55.832;49.124;2023-07-13T13:01:35;5.25;;;1.40;;
78453;SDS011;67750;55.832;49.124;2023-07-13T13:04:05;2.10;;;1.17;;
78453;SDS011;67750;55.832;49.124;2023-07-13T13:06:35;2.95;;;1.50;;
78453;SDS011;67750;55.832;49.124;2023-07-13T13:09:09;3.27;;;1.20;;
78453;SDS011;67750;55.832;49.124;2023-07-13T13:11:37;1.98;;;1.02;;
78453;SDS011;67750;55.832;49.124;2023-07-13T13:14:07;5.42;;;1.40;;
78453;SDS011;67750;55.832;49.124;2023-07-13T13:19:29;1.80;;;1.20;;
78453;SDS011;67750;55.832;49.124;2023-07-13T13:21:58;3.65;;;1.27;;
78453;SDS011;67750;55.832;49.124;2023-07-13T13:24:28;3.30;;;1.30;;
78453;SDS011;67750;55.832;49.124;2023-07-13T13:26:57;2.70;;;1.40;;
78453;SDS011;67750;55.832;49.124;2023-07-13T13:29:27;4.37;;;1.40;;
78453;SDS011;67750;55.832;49.124;2023-07-13T13:31:57;5.05;;;1.27;;
78453;SDS011;67750;55.832;49.124;2023-07-13T13:34:26;8.08;;;1.67;;
78453;SDS011;67750;55.832;49.124;2023-07-13T13:36:56;4.97;;;1.98;;
78453;SDS011;67750;55.832;49.124;2023-07-13T13:39:28;3.47;;;1.60;;
78453;SDS011;67750;55.832;49.124;2023-07-13T13:41:56;3.77;;;1.62;;
78453;SDS011;67750;55.832;49.124;2023-07-13T13:44:25;3.37;;;1.17;;
78453;SDS011;67750;55.832;49.124;2023-07-13T13:46:55;3.60;;;1.27;;
78453;SDS011;67750;55.832;49.124;2023-07-13T13:49:27;3.83;;;1.60;;
78453;SDS011;67750;55.832;49.124;2023-07-13T13:51:57;3.45;;;1.42;;
78453;SDS011;67750;55.832;49.124;2023-07-13T13:54:26;2.90;;;1.45;;
78453;SDS011;67750;55.832;49.124;2023-07-13T13:56:55;2.00;;;1.22;;
78453;SDS011;67750;55.832;49.124;2023-07-13T13:59:25;3.33;;;1.30;;
78453;SDS011;67750;55.832;49.124;2023-07-13T14:01:55;3.52;;;1.20;;
78453;SDS011;67750;55.832;49.124;2023-07-13T14:04:26;3.20;;;1.60;;
78453;SDS011;67750;55.832;49.124;2023-07-13T14:06:56;3.47;;;1.50;;
78453;SDS011;67750;55.832;49.124;2023-07-13T14:09:25;4.15;;;1.42;;
78453;SDS011;67750;55.832;49.124;2023-07-13T14:11:54;5.60;;;1.40;;
78453;SDS011;67750;55.832;49.124;2023-07-13T14:14:24;2.77;;;1.50;;
78453;SDS011;67750;55.832;49.124;2023-07-13T14:16:54;5.10;;;1.50;;
78453;SDS011;67750;55.832;49.124;2023-07-13T14:19:24;2.40;;;1.30;;
78453;SDS011;67750;55.832;49.124;2023-07-13T14:21:54;2.42;;;1.25;;
78453;SDS011;67750;55.832;49.124;2023-07-13T14:24:24;1.80;;;1.20;;
78453;SDS011;67750;55.832;49.124;2023-07-13T14:26:53;1.87;;;1.12;;
78453;SDS011;67750;55.832;49.124;2023-07-13T14:29:23;1.70;;;1.05;;
78453;SDS011;67750;55.832;49.124;2023-07-13T14:31:52;2.52;;;1.30;;
78453;SDS011;67750;55.832;49.124;2023-07-13T14:34:22;2.72;;;1.45;;
78453;SDS011;67750;55.832;49.124;2023-07-13T14:36:51;4.22;;;1.35;;
78453;SDS011;67750;55.832;49.124;2023-07-13T14:39:22;3.45;;;1.60;;
78453;SDS011;67750;55.832;49.124;2023-07-13T14:41:53;4.72;;;1.42;;
78453;SDS011;67750;55.832;49.124;2023-07-13T14:44:58;3.22;;;1.50;;
78453;SDS011;67750;55.832;49.124;2023-07-13T14:46:56;3.30;;;1.52;;
78453;SDS011;67750;55.832;49.124;2023-07-13T14:54:44;3.02;;;1.20;;
78453;SDS011;67750;55.832;49.124;2023-07-13T14:57:49;1.85;;;1.25;;
78453;SDS011;67750;55.832;49.124;2023-07-13T15:02:55;2.40;;;1.30;;
78453;SDS011;67750;55.832;49.124;2023-07-13T15:05:26;2.40;;;1.52;;
78453;SDS011;67750;55.832;49.124;2023-07-13T15:10:47;3.80;;;1.65;;
78453;SDS011;67750;55.832;49.124;2023-07-13T15:18:55;3.85;;;1.32;;
78453;SDS011;67750;55.832;49.124;2023-07-13T15:21:26;4.10;;;1.40;;
78453;SDS011;67750;55.832;49.124;2023-07-13T15:23:57;2.37;;;1.25;;
78453;SDS011;67750;55.832;49.124;2023-07-13T15:26:26;3.95;;;1.47;;
78453;SDS011;67750;55.832;49.124;2023-07-13T15:28:57;3.62;;;1.47;;
78453;SDS011;67750;55.832;49.124;2023-07-13T15:31:26;3.33;;;1.57;;
78453;SDS011;67750;55.832;49.124;2023-07-13T15:33:57;2.72;;;1.50;;
78453;SDS011;67750;55.832;49.124;2023-07-13T15:36:27;6.95;;;1.70;;
78453;SDS011;67750;55.832;49.124;2023-07-13T15:38:57;2.60;;;1.50;;
78453;SDS011;67750;55.832;49.124;2023-07-13T15:41:27;5.42;;;1.60;;
78453;SDS011;67750;55.832;49.124;2023-07-13T15:43:58;4.28;;;1.32;;
78453;SDS011;67750;55.832;49.124;2023-07-13T15:46:28;3.35;;;1.40;;
78453;SDS011;67750;55.832;49.124;2023-07-13T15:48:58;2.98;;;1.22;;
78453;SDS011;67750;55.832;49.124;2023-07-13T15:51:28;2.25;;;1.50;;
78453;SDS011;67750;55.832;49.124;2023-07-13T15:56:51;3.37;;;1.50;;
78453;SDS011;67750;55.832;49.124;2023-07-13T15:59:21;3.90;;;1.52;;
78453;SDS011;67750;55.832;49.124;2023-07-13T16:01:51;3.42;;;1.55;;
78453;SDS011;67750;55.832;49.124;2023-07-13T16:04:20;2.40;;;1.40;;
78453;SDS011;67750;55.832;49.124;2023-07-13T16:06:50;3.15;;;1.40;;
78453;SDS011;67750;55.832;49.124;2023-07-13T16:09:21;6.47;;;2.00;;
78453;SDS011;67750;55.832;49.124;2023-07-13T16:11:50;6.25;;;1.50;;
78453;SDS011;67750;55.832;49.124;2023-07-13T16:14:22;4.00;;;1.70;;
78453;SDS011;67750;55.832;49.124;2023-07-13T16:16:52;3.65;;;1.42;;
78453;SDS011;67750;55.832;49.124;2023-07-13T16:19:22;3.67;;;2.00;;
78453;SDS011;67750;55.832;49.124;2023-07-13T16:21:53;5.60;;;2.55;;
78453;SDS011;67750;55.832;49.124;2023-07-13T16:26:53;4.67;;;2.10;;
78453;SDS011;67750;55.832;49.124;2023-07-13T16:29:25;3.83;;;1.60;;
78453;SDS011;67750;55.832;49.124;2023-07-13T16:34:44;2.98;;;1.92;;
78453;SDS011;67750;55.832;49.124;2023-07-13T16:37:16;5.10;;;1.82;;
78453;SDS011;67750;55.832;49.124;2023-07-13T16:39:48;4.60;;;1.75;;
78453;SDS011;67750;55.832;49.124;2023-07-13T16:42:19;7.22;;;1.40;;
78453;SDS011;67750;55.832;49.124;2023-07-13T16:44:48;4.15;;;1.50;;
78453;SDS011;67750;55.832;49.124;2023-07-13T16:47:18;3.12;;;1.47;;
78453;SDS011;67750;55.832;49.124;2023-07-13T16:49:47;3.65;;;2.02;;
78453;SDS011;67750;55.832;49.124;2023-07-13T16:52:17;4.83;;;1.95;;
78453;SDS011;67750;55.832;49.124;2023-07-13T16:54:47;5.95;;;1.95;;
78453;SDS011;67750;55.832;49.124;2023-07-13T17:00:15;5.90;;;1.72;;
78453;SDS011;67750;55.832;49.124;2023-07-13T17:02:43;6.03;;;2.67;;
78453;SDS011;67750;55.832;49.124;2023-07-13T17:05:14;6.22;;;2.05;;
78453;SDS011;67750;55.832;49.124;2023-07-13T17:07:44;3.67;;;1.92;;
78453;SDS011;67750;55.832;49.124;2023-07-13T17:13:04;6.05;;;2.08;;
78453;SDS011;67750;55.832;49.124;2023-07-13T17:15:35;3.75;;;1.98;;
78453;SDS011;67750;55.832;49.124;2023-07-13T17:18:05;3.55;;;1.70;;
78453;SDS011;67750;55.832;49.124;2023-07-13T17:20:35;5.78;;;2.60;;
78453;SDS011;67750;55.832;49.124;2023-07-13T17:25:56;4.25;;;2.00;;
78453;SDS011;67750;55.832;49.124;2023-07-13T17:28:26;5.42;;;2.17;;
78453;SDS011;67750;55.832;49.124;2023-07-13T17:30:56;5.83;;;2.37;;
78453;SDS011;67750;55.832;49.124;2023-07-13T17:36:16;6.85;;;2.70;;